Robin B Ingram — WDB9002 — position and weather

sailwx.info

Track history (hours):
 
Tides and Currents Weather Stations Pressure Air Temp Water Temp Dewpoint Dewpoint Depression Visibility Wind Speed Wind Dir Waves Ship Positions

Robin B Ingram

Owner: Ingram Barge Company LLC, Nashville, TN. More information available from US FCC via Universal Licensing System and Coast Guard Vessel Documentation Center.

Last reported at 2018-Apr-23 15:01 UTC. Time now 2018-Apr-26 15:31 UTC.
Position N 39°16' W 090°44'.

Length 39 m; draft 3 m.

Type: Towing. MMSI: 366967670.

Date/timePositionNaut miles runAvg speedWind from/ knotsBaromVisibWave heightAir tempDewpointWater temp
2018-Apr-23 15:01N 39°16' W 090°44'6 6.1
2018-Apr-23 14:01N 39°10' W 090°43'0 6.3
2018-Apr-23 14:00N 39°09' W 090°43'3 6.1
2018-Apr-23 13:30N 39°07' W 090°41'4 3.6
2018-Apr-23 12:30N 39°03' W 090°43'3 5.5
2018-Apr-23 12:01N 39°01' W 090°42'1 1.2
2018-Apr-23 11:31N 39°00' W 090°41'0 0.2
2018-Apr-23 11:01N 39°00' W 090°41'0 0.0
2018-Apr-23 10:30N 39°00' W 090°41'0 0.2
2018-Apr-23 10:00N 38°60' W 090°41'2 3.7
2018-Apr-23 09:21N 38°58' W 090°40'2 4.7
2018-Apr-23 09:00N 38°56' W 090°40'2 4.5
2018-Apr-23 08:30N 38°54' W 090°38'2 3.2
2018-Apr-23 08:01N 38°53' W 090°37'0 0.0
2018-Apr-23 07:30N 38°53' W 090°37'0 0.0
2018-Apr-23 07:00N 38°53' W 090°37'0 0.0
2018-Apr-23 06:30N 38°53' W 090°37'0 0.0
2018-Apr-23 06:00N 38°53' W 090°37'0 0.0
2018-Apr-23 05:30N 38°53' W 090°37'0 0.0
2018-Apr-23 05:01N 38°53' W 090°37'0 0.0
2018-Apr-23 04:30N 38°53' W 090°37'0 0.0
2018-Apr-23 04:00N 38°53' W 090°37'3 5.7
2018-Apr-23 03:31N 38°52' W 090°34'3 6.2
2018-Apr-23 03:00N 38°54' W 090°31'3 6.0
2018-Apr-23 02:31N 38°57' W 090°29'3 6.3
2018-Apr-23 02:00N 38°58' W 090°25'3 6.8
2018-Apr-23 01:30N 38°57' W 090°21'3 6.9
2018-Apr-23 01:01N 38°55' W 090°17'3 6.0
2018-Apr-23 00:31N 38°54' W 090°13'3 5.6
2018-Apr-23 00:01N 38°53' W 090°10'1 2.2
2018-Apr-22 23:31N 38°52' W 090°09'2 3.0
2018-Apr-22 23:01N 38°51' W 090°07'3 5.2
2018-Apr-22 22:31N 38°49' W 090°07'2 4.4
2018-Apr-22 22:00N 38°47' W 090°08'2 4.5
2018-Apr-22 21:31N 38°45' W 090°09'3 5.1
2018-Apr-22 21:01N 38°42' W 090°11'1 1.3
2018-Apr-22 20:30N 38°42' W 090°11'2 4.3
2018-Apr-22 20:01N 38°40' W 090°11'1 1.8
2018-Apr-22 19:30N 38°39' W 090°11'0 0.4
2018-Apr-22 19:01N 38°39' W 090°11'2 4.4
2018-Apr-22 18:30N 38°36' W 090°11'0 0.6
2018-Apr-22 18:00N 38°36' W 090°11'4 3.8
2018-Apr-22 16:57N 38°33' W 090°15'2 3.5
2018-Apr-22 16:29N 38°32' W 090°16'0 0.0
2018-Apr-22 16:01N 38°32' W 090°16'0 0.0
2018-Apr-22 15:30N 38°32' W 090°16'0 0.0
2018-Apr-22 15:00N 38°32' W 090°16'0 0.0
2018-Apr-22 14:30N 38°32' W 090°16'0 0.2
2018-Apr-22 13:55N 38°32' W 090°15'1 0.7
2018-Apr-22 13:05N 38°32' W 090°15'0 0.5
2018-Apr-22 13:00N 38°32' W 090°15'0 0.0
2018-Apr-22 12:30N 38°32' W 090°15'0 0.0
2018-Apr-22 12:00N 38°32' W 090°15'0 0.0
2018-Apr-22 11:30N 38°32' W 090°15'0 0.9
2018-Apr-22 11:00N 38°32' W 090°15'0 0.2
2018-Apr-22 10:30N 38°32' W 090°15'6 4.4
2018-Apr-22 09:09N 38°37' W 090°11'210.0
2018-Apr-22 08:58N 38°39' W 090°11'4 2.7
2018-Apr-22 07:36N 38°42' W 090°11'1 3.5
2018-Apr-22 07:15N 38°44' W 090°10'1 4.2
2018-Apr-22 06:59N 38°44' W 090°09'3 4.1
2018-Apr-22 06:08N 38°48' W 090°07'1 7.2
2018-Apr-22 06:01N 38°48' W 090°07'3 6.5
2018-Apr-22 05:30N 38°52' W 090°08'1 2.0
2018-Apr-22 05:01N 38°52' W 090°09'0 0.8
2018-Apr-22 04:31N 38°52' W 090°10'3 6.2
2018-Apr-22 04:00N 38°54' W 090°13'4 8.1
2018-Apr-22 03:31N 38°55' W 090°18'4 8.2
2018-Apr-22 03:01N 38°57' W 090°22'4 7.9
2018-Apr-22 02:30N 38°57' W 090°27'3 7.0
2018-Apr-22 02:01N 38°55' W 090°31'3 6.6
2018-Apr-22 01:30N 38°52' W 090°33'3 7.0
2018-Apr-22 01:01N 38°53' W 090°38'4 7.9
2018-Apr-22 00:31N 38°57' W 090°40'4 7.4
2018-Apr-22 00:01N 39°00' W 090°41'0 0.3
2018-Apr-21 23:31N 39°00' W 090°41'0 0.1
2018-Apr-21 23:01N 39°00' W 090°41'0 0.7
2018-Apr-21 22:29N 39°01' W 090°42'2 5.0
2018-Apr-21 22:00N 39°03' W 090°43'0 0.1
2018-Apr-21 21:30N 39°03' W 090°43'0 0.0
2018-Apr-21 21:01N 39°03' W 090°43'0 0.0
2018-Apr-21 20:30N 39°03' W 090°43'0 0.0
2018-Apr-21 20:01N 39°03' W 090°43'0 0.0
2018-Apr-21 19:31N 39°03' W 090°43'0 0.0
2018-Apr-21 19:01N 39°03' W 090°43'0 0.0
2018-Apr-21 18:31N 39°03' W 090°43'0 0.0
2018-Apr-21 18:01N 39°03' W 090°43'3 5.0
2018-Apr-21 17:23N 39°05' W 090°41'3 7.7
2018-Apr-21 16:58N 39°08' W 090°42'  
Track history (hours):
 
Tides and Currents Weather Stations Pressure Air Temp Water Temp Dewpoint Dewpoint Depression Visibility Wind Speed Wind Dir Waves Ship Positions

Robin B Ingram

Owner: Ingram Barge Company LLC, Nashville, TN. More information available from US FCC via Universal Licensing System and Coast Guard Vessel Documentation Center.

Last reported at 2018-Apr-23 15:01 UTC. Time now 2018-Apr-26 15:32 UTC.
Position N 39°16' W 090°44'.

Length 39 m; draft 3 m.

Type: Towing. MMSI: 366967670.

Date/timePositionNaut miles runAvg speedWind from/ knotsBaromVisibWave heightAir tempDewpointWater temp
2018-Apr-23 15:01N 39°16' W 090°44'6 6.1
2018-Apr-23 14:01N 39°10' W 090°43'0 6.3
2018-Apr-23 14:00N 39°09' W 090°43'3 6.1
2018-Apr-23 13:30N 39°07' W 090°41'4 3.6
2018-Apr-23 12:30N 39°03' W 090°43'3 5.5
2018-Apr-23 12:01N 39°01' W 090°42'1 1.2
2018-Apr-23 11:31N 39°00' W 090°41'0 0.2
2018-Apr-23 11:01N 39°00' W 090°41'0 0.0
2018-Apr-23 10:30N 39°00' W 090°41'0 0.2
2018-Apr-23 10:00N 38°60' W 090°41'2 3.7
2018-Apr-23 09:21N 38°58' W 090°40'2 4.7
2018-Apr-23 09:00N 38°56' W 090°40'2 4.5
2018-Apr-23 08:30N 38°54' W 090°38'2 3.2
2018-Apr-23 08:01N 38°53' W 090°37'0 0.0
2018-Apr-23 07:30N 38°53' W 090°37'0 0.0
2018-Apr-23 07:00N 38°53' W 090°37'0 0.0
2018-Apr-23 06:30N 38°53' W 090°37'0 0.0
2018-Apr-23 06:00N 38°53' W 090°37'0 0.0
2018-Apr-23 05:30N 38°53' W 090°37'0 0.0
2018-Apr-23 05:01N 38°53' W 090°37'0 0.0
2018-Apr-23 04:30N 38°53' W 090°37'0 0.0
2018-Apr-23 04:00N 38°53' W 090°37'3 5.7
2018-Apr-23 03:31N 38°52' W 090°34'3 6.2
2018-Apr-23 03:00N 38°54' W 090°31'3 6.0
2018-Apr-23 02:31N 38°57' W 090°29'3 6.3
2018-Apr-23 02:00N 38°58' W 090°25'3 6.8
2018-Apr-23 01:30N 38°57' W 090°21'3 6.9
2018-Apr-23 01:01N 38°55' W 090°17'3 6.0
2018-Apr-23 00:31N 38°54' W 090°13'3 5.6
2018-Apr-23 00:01N 38°53' W 090°10'1 2.2
2018-Apr-22 23:31N 38°52' W 090°09'2 3.0
2018-Apr-22 23:01N 38°51' W 090°07'3 5.2
2018-Apr-22 22:31N 38°49' W 090°07'2 4.4
2018-Apr-22 22:00N 38°47' W 090°08'2 4.5
2018-Apr-22 21:31N 38°45' W 090°09'3 5.1
2018-Apr-22 21:01N 38°42' W 090°11'1 1.3
2018-Apr-22 20:30N 38°42' W 090°11'2 4.3
2018-Apr-22 20:01N 38°40' W 090°11'1 1.8
2018-Apr-22 19:30N 38°39' W 090°11'0 0.4
2018-Apr-22 19:01N 38°39' W 090°11'2 4.4
2018-Apr-22 18:30N 38°36' W 090°11'0 0.6
2018-Apr-22 18:00N 38°36' W 090°11'4 3.8
2018-Apr-22 16:57N 38°33' W 090°15'2 3.5
2018-Apr-22 16:29N 38°32' W 090°16'0 0.0
2018-Apr-22 16:01N 38°32' W 090°16'0 0.0
2018-Apr-22 15:30N 38°32' W 090°16'0 0.0
2018-Apr-22 15:00N 38°32' W 090°16'0 0.0
2018-Apr-22 14:30N 38°32' W 090°16'0 0.2
2018-Apr-22 13:55N 38°32' W 090°15'1 0.7
2018-Apr-22 13:05N 38°32' W 090°15'0 0.5
2018-Apr-22 13:00N 38°32' W 090°15'0 0.0
2018-Apr-22 12:30N 38°32' W 090°15'0 0.0
2018-Apr-22 12:00N 38°32' W 090°15'0 0.0
2018-Apr-22 11:30N 38°32' W 090°15'0 0.9
2018-Apr-22 11:00N 38°32' W 090°15'0 0.2
2018-Apr-22 10:30N 38°32' W 090°15'6 4.4
2018-Apr-22 09:09N 38°37' W 090°11'210.0
2018-Apr-22 08:58N 38°39' W 090°11'4 2.7
2018-Apr-22 07:36N 38°42' W 090°11'1 3.5
2018-Apr-22 07:15N 38°44' W 090°10'1 4.2
2018-Apr-22 06:59N 38°44' W 090°09'3 4.1
2018-Apr-22 06:08N 38°48' W 090°07'1 7.2
2018-Apr-22 06:01N 38°48' W 090°07'3 6.5
2018-Apr-22 05:30N 38°52' W 090°08'1 2.0
2018-Apr-22 05:01N 38°52' W 090°09'0 0.8
2018-Apr-22 04:31N 38°52' W 090°10'3 6.2
2018-Apr-22 04:00N 38°54' W 090°13'4 8.1
2018-Apr-22 03:31N 38°55' W 090°18'4 8.2
2018-Apr-22 03:01N 38°57' W 090°22'4 7.9
2018-Apr-22 02:30N 38°57' W 090°27'3 7.0
2018-Apr-22 02:01N 38°55' W 090°31'3 6.6
2018-Apr-22 01:30N 38°52' W 090°33'3 7.0
2018-Apr-22 01:01N 38°53' W 090°38'4 7.9
2018-Apr-22 00:31N 38°57' W 090°40'4 7.4
2018-Apr-22 00:01N 39°00' W 090°41'0 0.3
2018-Apr-21 23:31N 39°00' W 090°41'0 0.1
2018-Apr-21 23:01N 39°00' W 090°41'0 0.7
2018-Apr-21 22:29N 39°01' W 090°42'2 5.0
2018-Apr-21 22:00N 39°03' W 090°43'0 0.1
2018-Apr-21 21:30N 39°03' W 090°43'0 0.0
2018-Apr-21 21:01N 39°03' W 090°43'0 0.0
2018-Apr-21 20:30N 39°03' W 090°43'0 0.0
2018-Apr-21 20:01N 39°03' W 090°43'0 0.0
2018-Apr-21 19:31N 39°03' W 090°43'0 0.0
2018-Apr-21 19:01N 39°03' W 090°43'0 0.0
2018-Apr-21 18:31N 39°03' W 090°43'0 0.0
2018-Apr-21 18:01N 39°03' W 090°43'3 5.0
2018-Apr-21 17:23N 39°05' W 090°41'3 7.7
2018-Apr-21 16:58N 39°08' W 090°42'  

Dump ship's entire track history